Time;durP1;ratioP1;P1;durP2;ratioP2;P2;SDS_P1;SDS_P2;PMS_P1;PMS_P2;Temp;Humidity;BMP_temperature;BMP_pressure;BME280_temperature;BME280_humidity;BME280_pressure;Samples;Min_cycle;Max_cycle;Signal;HPM_P1;HPM_P2
2021/12/30 00:01:24;;;;;;;37.63;12.35;;;11.30;91.30;;;;;;5016116;28;20033;-74
2021/12/30 00:03:50;;;;;;;37.53;12.32;;;11.30;91.30;;;;;;5033811;28;20088;-74
2021/12/30 00:06:18;;;;;;;46.17;13.82;;;11.30;91.40;;;;;;5015524;28;20424;-74
2021/12/30 00:08:45;;;;;;;46.17;14.57;;;11.40;91.60;;;;;;5009744;28;20049;-74
2021/12/30 00:11:11;;;;;;;42.80;14.43;;;11.30;91.40;;;;;;5013340;28;20064;-74
2021/12/30 00:13:39;;;;;;;41.10;13.93;;;11.40;91.40;;;;;;5016904;28;20468;-74
2021/12/30 00:16:05;;;;;;;47.13;15.65;;;11.30;91.40;;;;;;5009898;28;20060;-74
2021/12/30 00:18:31;;;;;;;46.72;16.70;;;11.30;91.40;;;;;;5013174;28;20131;-74
2021/12/30 00:20:57;;;;;;;40.88;15.75;;;11.30;91.40;;;;;;5017462;28;20394;-74
2021/12/30 00:23:23;;;;;;;42.45;15.20;;;11.30;91.50;;;;;;5033013;28;20037;-74
2021/12/30 00:25:49;;;;;;;47.15;17.10;;;11.30;91.50;;;;;;5019287;28;20495;-74
2021/12/30 00:28:21;;;;;;;50.45;17.23;;;11.30;91.50;;;;;;5022332;28;20053;-74
2021/12/30 00:30:48;;;;;;;37.88;16.17;;;11.40;91.60;;;;;;4997664;28;20026;-75
2021/12/30 00:33:15;;;;;;;49.90;18.17;;;11.40;91.60;;;;;;5024715;28;20030;-74
2021/12/30 00:35:41;;;;;;;41.75;17.92;;;11.40;91.60;;;;;;5018653;28;20031;-75
2021/12/30 00:38:08;;;;;;;48.35;17.48;;;11.40;91.60;;;;;;5032799;28;20054;-75
2021/12/30 00:40:36;;;;;;;54.85;18.30;;;11.40;91.60;;;;;;4998950;28;20398;-74
2021/12/30 00:43:02;;;;;;;43.17;16.80;;;11.40;91.60;;;;;;5032679;28;20083;-74
2021/12/30 00:45:29;;;;;;;49.35;17.25;;;11.40;91.70;;;;;;5032687;28;20057;-74
2021/12/30 00:47:55;;;;;;;35.25;16.25;;;11.40;91.70;;;;;;5014435;28;20033;-74
2021/12/30 00:50:22;;;;;;;45.95;17.52;;;11.50;91.70;;;;;;5032657;28;20073;-74
2021/12/30 00:52:47;;;;;;;53.17;18.90;;;11.50;91.70;;;;;;4998164;28;20029;-74
2021/12/30 00:55:14;;;;;;;47.20;17.13;;;11.50;91.80;;;;;;5034708;28;20044;-74
2021/12/30 00:57:41;;;;;;;43.40;15.93;;;11.50;91.80;;;;;;5015170;28;20030;-75
2021/12/30 01:00:10;;;;;;;47.15;17.85;;;11.50;91.80;;;;;;5032492;28;20535;-74
2021/12/30 01:02:36;;;;;;;44.03;15.70;;;11.50;91.80;;;;;;5016421;28;20053;-74
2021/12/30 01:05:02;;;;;;;47.83;16.42;;;11.50;91.80;;;;;;5020870;28;20065;-74
2021/12/30 01:07:28;;;;;;;43.97;14.90;;;11.50;91.80;;;;;;5032402;28;20030;-74
2021/12/30 01:09:53;;;;;;;46.05;16.05;;;11.60;91.90;;;;;;5002279;28;20118;-74
2021/12/30 01:12:20;;;;;;;48.58;15.65;;;11.60;91.90;;;;;;5014839;28;20060;-74
2021/12/30 01:14:47;;;;;;;45.92;14.52;;;11.60;91.90;;;;;;4996006;28;20393;-74
2021/12/30 01:17:21;;;;;;;42.63;14.80;;;11.60;91.90;;;;;;4994740;28;20034;-74
2021/12/30 01:19:47;;;;;;;41.58;13.75;;;11.60;91.90;;;;;;5012620;28;20465;-74
2021/12/30 01:22:25;;;;;;;37.70;12.40;;;11.60;91.90;;;;;;5031732;28;20101;-74
2021/12/30 01:24:52;;;;;;;41.42;13.43;;;11.70;91.90;;;;;;5026661;28;20028;-74
2021/12/30 01:27:20;;;;;;;30.75;11.77;;;11.60;91.90;;;;;;5013375;28;20024;-74
2021/12/30 01:29:47;;;;;;;43.15;12.57;;;11.70;91.90;;;;;;5012102;28;20057;-74
2021/12/30 01:32:12;;;;;;;35.33;11.80;;;11.70;91.90;;;;;;4997483;28;20089;-74
2021/12/30 01:34:38;;;;;;;36.75;12.07;;;11.70;91.90;;;;;;5026286;28;20029;-74
2021/12/30 01:37:05;;;;;;;33.95;10.57;;;11.70;91.90;;;;;;5028364;28;20502;-74
2021/12/30 01:39:36;;;;;;;43.33;11.25;;;11.70;91.90;;;;;;5013120;28;20038;-74
2021/12/30 01:42:07;;;;;;;42.60;10.85;;;11.80;91.90;;;;;;5028536;28;20037;-74
2021/12/30 01:44:34;;;;;;;35.45;10.57;;;11.80;91.90;;;;;;5024650;28;20452;-74
2021/12/30 01:47:01;;;;;;;37.97;12.20;;;11.80;91.90;;;;;;5036013;28;20029;-74
2021/12/30 01:49:27;;;;;;;38.17;10.73;;;11.80;92.00;;;;;;5017785;28;20034;-75
2021/12/30 01:51:54;;;;;;;41.13;11.25;;;11.80;92.00;;;;;;5035996;28;20113;-75
2021/12/30 01:54:22;;;;;;;33.20;10.57;;;11.80;92.00;;;;;;5001586;28;20026;-74
2021/12/30 01:56:50;;;;;;;46.25;12.55;;;11.80;92.00;;;;;;5016008;28;20500;-75
2021/12/30 01:59:20;;;;;;;50.63;13.00;;;11.90;92.00;;;;;;5028309;28;20017;-74
2021/12/30 02:01:46;;;;;;;42.40;13.15;;;11.80;92.10;;;;;;5018447;28;20037;-74
2021/12/30 02:04:13;;;;;;;43.58;13.77;;;11.90;92.10;;;;;;5018257;28;20440;-75
2021/12/30 02:06:39;;;;;;;33.50;12.07;;;11.90;92.10;;;;;;5035878;28;20033;-75
2021/12/30 02:09:05;;;;;;;48.38;14.35;;;11.90;92.10;;;;;;5035707;28;20103;-74
2021/12/30 02:11:32;;;;;;;49.28;14.48;;;11.90;92.20;;;;;;5035281;28;20045;-74
2021/12/30 02:13:57;;;;;;;47.85;13.45;;;12.00;92.20;;;;;;5025854;28;20497;-74
2021/12/30 02:16:23;;;;;;;38.22;14.88;;;12.00;92.20;;;;;;4999831;28;20060;-74
2021/12/30 02:18:51;;;;;;;48.92;14.13;;;12.00;92.20;;;;;;5015911;28;20052;-74
2021/12/30 02:21:17;;;;;;;44.85;16.20;;;12.00;92.20;;;;;;5003898;28;20380;-74
2021/12/30 02:23:43;;;;;;;45.38;15.07;;;12.00;92.20;;;;;;5015851;28;20030;-75
2021/12/30 02:26:14;;;;;;;56.78;18.52;;;12.10;92.30;;;;;;4998191;28;20449;-75
2021/12/30 02:28:41;;;;;;;45.75;16.45;;;12.10;92.30;;;;;;5027555;28;20041;-75
2021/12/30 02:31:14;;;;;;;48.35;16.67;;;12.10;92.30;;;;;;5018746;28;20022;-75
2021/12/30 02:33:40;;;;;;;62.05;18.17;;;12.10;92.30;;;;;;5015861;28;20030;-75
2021/12/30 02:36:07;;;;;;;49.80;16.02;;;12.10;92.40;;;;;;5015746;28;20022;-74
2021/12/30 02:38:33;;;;;;;57.88;19.13;;;12.10;92.40;;;;;;5024890;28;20053;-74
2021/12/30 02:41:00;;;;;;;50.63;17.55;;;12.10;92.50;;;;;;5021225;28;20417;-74
2021/12/30 02:43:30;;;;;;;50.25;17.40;;;12.10;92.50;;;;;;5035452;28;20060;-74
2021/12/30 02:45:58;;;;;;;56.08;18.35;;;12.10;92.50;;;;;;5016290;28;20033;-74
2021/12/30 02:48:27;;;;;;;46.60;16.40;;;12.10;92.50;;;;;;5035239;28;20041;-74
2021/12/30 02:50:57;;;;;;;54.70;17.63;;;12.10;92.50;;;;;;5015387;28;20140;-74
2021/12/30 02:53:23;;;;;;;54.17;18.05;;;12.10;92.50;;;;;;5015416;28;20030;-74
2021/12/30 02:55:50;;;;;;;58.30;18.50;;;12.20;92.50;;;;;;5014757;28;20026;-74
2021/12/30 02:58:17;;;;;;;49.05;18.27;;;12.20;92.50;;;;;;5022771;28;20528;-74
2021/12/30 03:00:45;;;;;;;48.15;18.05;;;12.20;92.50;;;;;;5031634;28;20121;-74
2021/12/30 03:03:22;;;;;;;54.25;18.08;;;12.20;92.50;;;;;;5034463;28;20033;-74
2021/12/30 03:05:49;;;;;;;42.88;16.70;;;12.20;92.50;;;;;;5025035;28;20022;-74
2021/12/30 03:08:16;;;;;;;55.80;17.90;;;12.20;92.50;;;;;;5034382;28;20472;-74
2021/12/30 03:10:42;;;;;;;47.58;16.25;;;12.20;92.50;;;;;;5034604;28;20051;-74
2021/12/30 03:13:10;;;;;;;60.72;18.20;;;12.20;92.50;;;;;;4987078;28;20373;-74
2021/12/30 03:15:36;;;;;;;46.17;16.35;;;12.20;92.50;;;;;;5014749;28;20021;-74
2021/12/30 03:18:03;;;;;;;41.70;15.55;;;12.20;92.50;;;;;;5033488;28;20038;-74
2021/12/30 03:20:34;;;;;;;38.55;14.80;;;12.20;92.50;;;;;;5034493;28;20029;-74
2021/12/30 03:23:01;;;;;;;45.90;15.20;;;12.20;92.50;;;;;;5012540;28;20033;-74
2021/12/30 03:25:27;;;;;;;36.70;14.65;;;12.30;92.50;;;;;;5006655;28;20397;-75
2021/12/30 03:27:53;;;;;;;39.60;14.77;;;12.30;92.40;;;;;;5033009;28;20033;-75
2021/12/30 03:30:18;;;;;;;44.53;15.85;;;12.30;92.40;;;;;;5027859;28;20116;-74
2021/12/30 03:32:45;;;;;;;36.00;15.13;;;12.30;92.40;;;;;;5016422;28;20018;-75
2021/12/30 03:35:11;;;;;;;44.70;16.58;;;12.30;92.40;;;;;;5034461;28;20058;-75
2021/12/30 03:37:38;;;;;;;38.17;15.05;;;12.30;92.40;;;;;;5033524;28;20018;-75
2021/12/30 03:40:07;;;;;;;46.53;17.95;;;12.40;92.40;;;;;;5027712;28;20113;-75
2021/12/30 03:42:33;;;;;;;35.70;17.67;;;12.30;92.40;;;;;;5033081;28;20026;-75
2021/12/30 03:45:02;;;;;;;52.60;19.92;;;12.30;92.40;;;;;;5031088;28;20040;-75
2021/12/30 03:47:28;;;;;;;44.42;19.23;;;12.30;92.50;;;;;;5010506;28;20072;-75
2021/12/30 03:49:54;;;;;;;36.05;16.45;;;12.30;92.50;;;;;;5026753;28;20511;-75
2021/12/30 03:52:25;;;;;;;34.97;16.77;;;12.30;92.50;;;;;;5025628;28;20484;-75
2021/12/30 03:54:51;;;;;;;42.03;17.73;;;12.30;92.50;;;;;;4997790;28;20060;-75
2021/12/30 03:57:17;;;;;;;41.38;16.48;;;12.30;92.50;;;;;;5008140;28;20030;-75
2021/12/30 03:59:43;;;;;;;37.05;17.27;;;12.30;92.50;;;;;;5016640;28;20017;-75
2021/12/30 04:02:08;;;;;;;38.75;18.55;;;12.30;92.50;;;;;;5013655;28;20037;-74
2021/12/30 04:04:34;;;;;;;31.20;17.02;;;12.30;92.60;;;;;;5013082;28;20071;-75
2021/12/30 04:07:00;;;;;;;29.95;17.00;;;12.30;92.60;;;;;;5032567;28;20057;-75
2021/12/30 04:09:26;;;;;;;32.75;16.33;;;12.30;92.60;;;;;;5010069;28;20063;-74
2021/12/30 04:11:52;;;;;;;36.28;17.40;;;12.30;92.60;;;;;;5033016;28;20026;-74
2021/12/30 04:14:18;;;;;;;28.70;15.38;;;12.30;92.70;;;;;;5032838;28;20021;-74
2021/12/30 04:16:44;;;;;;;30.67;17.35;;;12.30;92.70;;;;;;5015416;28;20049;-74
2021/12/30 04:19:09;;;;;;;42.95;18.77;;;12.30;92.70;;;;;;5032952;28;20030;-74
2021/12/30 04:21:35;;;;;;;35.45;18.58;;;12.40;92.70;;;;;;5032326;28;20033;-74
2021/12/30 04:24:02;;;;;;;32.58;17.23;;;12.40;92.70;;;;;;5032720;28;20885;-74
2021/12/30 04:26:27;;;;;;;29.90;16.40;;;12.40;92.80;;;;;;5028964;28;20025;-74
2021/12/30 04:28:53;;;;;;;28.42;14.68;;;12.40;92.80;;;;;;4995729;28;20053;-74
2021/12/30 04:31:19;;;;;;;29.33;16.13;;;12.40;93.00;;;;;;5025620;28;20480;-74
2021/12/30 04:33:45;;;;;;;36.58;18.15;;;12.40;92.80;;;;;;5020797;28;20072;-74
2021/12/30 04:36:11;;;;;;;38.95;18.08;;;12.40;92.70;;;;;;5014676;28;20041;-74
2021/12/30 04:38:38;;;;;;;34.10;17.30;;;12.50;92.80;;;;;;5027270;28;20076;-74
2021/12/30 04:41:05;;;;;;;28.73;16.33;;;12.50;92.80;;;;;;5023737;28;20075;-74
2021/12/30 04:43:31;;;;;;;33.25;16.48;;;12.50;92.80;;;;;;5010154;28;20026;-74
2021/12/30 04:45:58;;;;;;;25.15;15.05;;;12.40;92.90;;;;;;5022763;28;20086;-74
2021/12/30 04:48:24;;;;;;;26.40;14.80;;;12.50;92.90;;;;;;5030921;28;20082;-74
2021/12/30 04:50:50;;;;;;;24.33;14.05;;;12.50;92.90;;;;;;5021365;28;20029;-74
2021/12/30 04:53:18;;;;;;;21.98;13.50;;;12.50;93.00;;;;;;5014353;28;20028;-75
2021/12/30 04:55:44;;;;;;;22.17;13.75;;;12.50;93.00;;;;;;5006309;28;20060;-75
2021/12/30 04:58:10;;;;;;;24.67;14.15;;;12.50;93.10;;;;;;4996159;28;20487;-74
2021/12/30 05:00:36;;;;;;;20.30;13.15;;;12.50;93.10;;;;;;5022737;28;20037;-74
2021/12/30 05:03:11;;;;;;;17.20;11.80;;;12.60;93.10;;;;;;5014266;28;20034;-75
2021/12/30 05:05:51;;;;;;;16.63;11.63;;;12.60;93.10;;;;;;5014748;28;20447;-74
2021/12/30 05:08:20;;;;;;;17.90;11.15;;;12.60;93.10;;;;;;5031552;28;20412;-76
2021/12/30 05:10:46;;;;;;;17.02;11.13;;;12.60;93.20;;;;;;5027033;28;20022;-76
2021/12/30 05:13:12;;;;;;;14.63;11.00;;;12.60;93.20;;;;;;5027454;28;20068;-76
2021/12/30 05:15:42;;;;;;;15.05;10.35;;;12.60;93.20;;;;;;5005022;28;20021;-76
2021/12/30 05:18:09;;;;;;;18.05;10.23;;;12.60;93.30;;;;;;5037121;28;20029;-76
2021/12/30 05:20:36;;;;;;;15.68;9.73;;;12.60;93.30;;;;;;5021331;28;20567;-76
2021/12/30 05:23:02;;;;;;;13.50;9.23;;;12.70;93.30;;;;;;5031073;28;20372;-76
2021/12/30 05:25:28;;;;;;;11.73;8.20;;;12.70;93.30;;;;;;4997343;28;20030;-76
2021/12/30 05:27:54;;;;;;;11.85;8.00;;;12.70;93.20;;;;;;5028663;28;20027;-76
2021/12/30 05:30:24;;;;;;;10.32;7.97;;;12.70;93.20;;;;;;5010850;28;20041;-76
2021/12/30 05:32:52;;;;;;;11.30;7.65;;;12.70;93.20;;;;;;4999121;28;20040;-76
2021/12/30 05:35:18;;;;;;;10.63;7.32;;;12.70;93.20;;;;;;5015568;28;20031;-76
2021/12/30 05:37:44;;;;;;;12.05;6.97;;;12.70;93.30;;;;;;5010932;28;20057;-76
2021/12/30 05:40:14;;;;;;;8.68;6.05;;;12.70;93.30;;;;;;5011353;28;20107;-76
2021/12/30 05:42:40;;;;;;;8.25;6.63;;;12.70;93.30;;;;;;5031307;28;20037;-76
2021/12/30 05:45:07;;;;;;;7.97;6.57;;;12.80;93.30;;;;;;5024609;28;20029;-76
2021/12/30 05:47:36;;;;;;;8.40;6.90;;;12.70;93.30;;;;;;5004423;28;20511;-76
2021/12/30 05:50:05;;;;;;;8.25;6.15;;;12.80;93.30;;;;;;5009353;28;20071;-75
2021/12/30 05:52:30;;;;;;;7.68;5.97;;;12.80;93.30;;;;;;5024759;28;20030;-75
2021/12/30 05:54:56;;;;;;;6.82;5.70;;;12.80;93.30;;;;;;5009640;28;20494;-76
2021/12/30 05:57:22;;;;;;;6.15;5.13;;;12.80;93.30;;;;;;5018005;28;20079;-76
2021/12/30 05:59:48;;;;;;;4.88;4.18;;;12.80;93.30;;;;;;5030024;28;20045;-76
2021/12/30 06:02:13;;;;;;;6.82;4.90;;;12.80;93.30;;;;;;5015435;28;20022;-76
2021/12/30 06:04:41;;;;;;;6.28;4.65;;;12.80;93.30;;;;;;5015075;28;20030;-76
2021/12/30 06:07:08;;;;;;;6.28;4.78;;;12.80;93.30;;;;;;5019648;28;20057;-76
2021/12/30 06:09:33;;;;;;;9.15;7.78;;;12.80;93.30;;;;;;5027911;28;20049;-76
2021/12/30 06:11:59;;;;;;;9.38;8.25;;;12.80;93.40;;;;;;5029859;28;20021;-76
2021/12/30 06:14:25;;;;;;;13.15;10.02;;;12.80;93.60;;;;;;5012323;28;20044;-76
2021/12/30 06:16:50;;;;;;;11.48;10.27;;;12.90;93.50;;;;;;5007126;28;20034;-75
2021/12/30 06:19:16;;;;;;;15.32;11.88;;;12.90;93.50;;;;;;5024683;28;20033;-76
2021/12/30 06:21:42;;;;;;;18.33;13.10;;;12.90;93.50;;;;;;5002366;28;20120;-76
2021/12/30 06:24:07;;;;;;;17.40;13.73;;;12.90;93.50;;;;;;5012416;28;20108;-76
2021/12/30 06:26:33;;;;;;;15.05;13.10;;;12.90;93.50;;;;;;4989686;28;20404;-76
2021/12/30 06:28:59;;;;;;;17.45;13.70;;;12.90;93.40;;;;;;5029201;28;20449;-76
2021/12/30 06:31:25;;;;;;;19.40;14.90;;;13.00;93.40;;;;;;5008565;28;20507;-76
2021/12/30 06:33:50;;;;;;;19.20;16.27;;;13.00;93.40;;;;;;5027091;28;20101;-76
2021/12/30 06:36:17;;;;;;;25.27;19.08;;;12.90;93.30;;;;;;5015749;28;20073;-75
2021/12/30 06:38:43;;;;;;;18.30;15.88;;;13.00;93.30;;;;;;5033650;28;20052;-76
2021/12/30 06:41:09;;;;;;;18.83;16.83;;;13.00;93.30;;;;;;5025346;28;20431;-76
2021/12/30 06:43:35;;;;;;;21.45;18.80;;;13.00;93.30;;;;;;4993144;28;20034;-76
2021/12/30 06:46:04;;;;;;;24.75;18.88;;;13.00;93.40;;;;;;5032025;28;20029;-76
2021/12/30 06:48:30;;;;;;;19.23;17.20;;;13.00;93.40;;;;;;5016057;28;20045;-76
2021/12/30 06:50:57;;;;;;;17.52;15.80;;;13.00;93.40;;;;;;5026230;28;20033;-76
2021/12/30 06:53:23;;;;;;;15.10;13.50;;;13.00;93.40;;;;;;5018514;28;20515;-76
2021/12/30 06:55:52;;;;;;;12.63;10.98;;;13.00;93.30;;;;;;5014378;28;20022;-77
2021/12/30 06:58:18;;;;;;;9.18;7.55;;;13.00;93.30;;;;;;5018564;28;20033;-77
2021/12/30 07:00:44;;;;;;;9.30;5.75;;;13.00;93.20;;;;;;5027236;28;20484;-76
2021/12/30 07:03:10;;;;;;;11.27;6.55;;;13.00;93.10;;;;;;5025067;28;20026;-77
2021/12/30 07:05:36;;;;;;;6.53;4.80;;;13.00;93.00;;;;;;5024990;28;20018;-76
2021/12/30 07:08:02;;;;;;;6.13;5.10;;;13.00;92.90;;;;;;5027724;28;20144;-76
2021/12/30 07:10:28;;;;;;;6.60;4.60;;;13.00;92.90;;;;;;4996770;28;20033;-74
2021/12/30 07:12:54;;;;;;;6.00;4.20;;;13.00;92.90;;;;;;5020722;28;20025;-74
2021/12/30 07:15:20;;;;;;;6.55;4.65;;;13.00;92.90;;;;;;5016768;28;20044;-74
2021/12/30 07:17:46;;;;;;;8.27;5.20;;;13.00;92.90;;;;;;5031431;28;20140;-74
2021/12/30 07:20:13;;;;;;;8.05;4.93;;;13.00;92.90;;;;;;5021932;28;20094;-74
2021/12/30 07:22:39;;;;;;;8.02;4.20;;;13.00;92.90;;;;;;4990656;28;20083;-74
2021/12/30 07:25:06;;;;;;;6.10;4.15;;;13.00;92.90;;;;;;4999351;28;20032;-74
2021/12/30 07:27:31;;;;;;;6.30;4.50;;;13.00;93.10;;;;;;5022451;28;20108;-74
2021/12/30 07:29:59;;;;;;;6.35;4.97;;;13.00;92.90;;;;;;5014083;28;20029;-75
2021/12/30 07:32:25;;;;;;;7.28;5.18;;;13.00;92.90;;;;;;5020548;28;20018;-74
2021/12/30 07:34:51;;;;;;;7.88;5.60;;;13.00;92.90;;;;;;5018654;28;20531;-76
2021/12/30 07:37:17;;;;;;;8.95;6.70;;;13.10;93.00;;;;;;5029283;28;20026;-74
2021/12/30 07:39:45;;;;;;;10.68;7.80;;;13.00;93.00;;;;;;5027724;28;20443;-74
2021/12/30 07:42:11;;;;;;;11.43;8.13;;;13.00;93.00;;;;;;5013204;28;20036;-74
2021/12/30 07:44:38;;;;;;;10.45;8.50;;;13.00;93.10;;;;;;5014353;28;20121;-74
2021/12/30 07:47:05;;;;;;;9.85;7.60;;;13.00;93.10;;;;;;5030996;28;20029;-74
2021/12/30 07:49:32;;;;;;;13.30;8.60;;;13.10;93.10;;;;;;5015846;28;20472;-74
2021/12/30 07:51:58;;;;;;;14.40;9.20;;;13.10;93.10;;;;;;5033590;28;20068;-74
2021/12/30 07:54:24;;;;;;;12.48;9.60;;;13.10;93.10;;;;;;5031369;28;20407;-74
2021/12/30 07:56:50;;;;;;;12.52;10.00;;;13.10;93.10;;;;;;5014005;28;20400;-74
2021/12/30 07:59:16;;;;;;;15.70;11.02;;;13.20;93.10;;;;;;5013967;28;20028;-74
2021/12/30 08:01:42;;;;;;;14.13;11.98;;;13.10;93.00;;;;;;5025118;28;20053;-75
2021/12/30 08:04:07;;;;;;;21.10;14.02;;;13.20;93.00;;;;;;5033954;28;20124;-74
2021/12/30 08:06:34;;;;;;;21.55;13.80;;;13.20;93.00;;;;;;5022718;28;20029;-77
2021/12/30 08:09:00;;;;;;;17.85;14.80;;;13.20;93.00;;;;;;5002594;28;20742;-76
2021/12/30 08:11:25;;;;;;;20.52;15.18;;;13.20;93.00;;;;;;5028724;28;20048;-75
2021/12/30 08:13:51;;;;;;;20.13;15.98;;;13.20;93.00;;;;;;5017814;28;20077;-74
2021/12/30 08:16:17;;;;;;;16.95;14.75;;;13.30;93.00;;;;;;5025065;28;20468;-72
2021/12/30 08:18:43;;;;;;;24.75;15.95;;;13.30;93.00;;;;;;5011251;28;20033;-74
2021/12/30 08:21:10;;;;;;;20.67;16.15;;;13.30;93.10;;;;;;5018391;28;20025;-74
2021/12/30 08:23:36;;;;;;;21.25;15.35;;;13.30;93.10;;;;;;5015735;28;20393;-75
2021/12/30 08:26:03;;;;;;;17.90;14.60;;;13.30;93.10;;;;;;5012350;28;20050;-74
2021/12/30 08:28:29;;;;;;;18.67;14.60;;;13.40;93.20;;;;;;4994740;28;20034;-74
2021/12/30 08:30:55;;;;;;;16.98;12.77;;;13.40;93.10;;;;;;5009174;28;20034;-74
2021/12/30 08:33:21;;;;;;;18.58;14.13;;;13.40;93.10;;;;;;5024904;28;20032;-74
2021/12/30 08:35:46;;;;;;;17.30;12.90;;;13.50;93.10;;;;;;5031963;28;20018;-74
2021/12/30 08:38:13;;;;;;;16.42;12.38;;;13.50;93.00;;;;;;5004016;28;20046;-74
2021/12/30 08:40:39;;;;;;;13.93;11.60;;;13.50;93.00;;;;;;5017461;28;20114;-74
2021/12/30 08:43:10;;;;;;;15.02;11.63;;;13.60;92.90;;;;;;5021344;28;20121;-74
2021/12/30 08:45:36;;;;;;;14.23;11.27;;;13.60;92.80;;;;;;5031757;28;20026;-75
2021/12/30 08:48:02;;;;;;;14.25;10.68;;;13.60;92.80;;;;;;5005040;28;20048;-75
2021/12/30 08:50:28;;;;;;;12.02;10.10;;;13.60;92.70;;;;;;5021604;28;20033;-72
2021/12/30 08:52:54;;;;;;;12.02;9.85;;;13.60;92.60;;;;;;5016208;28;20071;-72
2021/12/30 08:55:20;;;;;;;10.73;9.52;;;13.70;92.60;;;;;;5002242;28;20136;-72
2021/12/30 08:57:47;;;;;;;11.68;9.63;;;13.70;92.50;;;;;;5010065;28;20108;-72
2021/12/30 09:00:16;;;;;;;11.98;9.75;;;13.70;92.50;;;;;;5027713;28;20030;-72
2021/12/30 09:02:42;;;;;;;11.25;9.10;;;13.70;92.40;;;;;;5012307;28;20084;-73
2021/12/30 09:05:08;;;;;;;10.35;9.23;;;13.70;92.30;;;;;;5016774;28;20037;-72
2021/12/30 09:07:34;;;;;;;10.57;8.98;;;13.80;92.20;;;;;;4995421;28;20550;-72
2021/12/30 09:10:00;;;;;;;11.55;9.10;;;13.80;92.10;;;;;;5008915;28;20033;-73
2021/12/30 09:12:25;;;;;;;11.23;9.48;;;13.80;92.10;;;;;;5026409;28;20496;-71
2021/12/30 09:14:52;;;;;;;9.00;8.10;;;13.80;92.00;;;;;;5016753;28;20026;-72
2021/12/30 09:17:17;;;;;;;9.27;8.38;;;13.80;92.00;;;;;;5002846;28;20032;-72
2021/12/30 09:19:43;;;;;;;12.40;8.25;;;13.80;92.00;;;;;;4997368;28;20497;-72
2021/12/30 09:22:09;;;;;;;12.25;8.15;;;13.80;91.80;;;;;;5014574;28;20021;-72
2021/12/30 09:24:35;;;;;;;12.77;7.88;;;13.80;91.80;;;;;;5018023;28;20084;-72
2021/12/30 09:27:01;;;;;;;14.25;9.23;;;13.80;91.70;;;;;;5006693;28;20037;-72
2021/12/30 09:29:27;;;;;;;11.93;8.23;;;13.90;91.80;;;;;;5014852;28;20038;-72
2021/12/30 09:31:53;;;;;;;13.02;7.28;;;13.90;91.70;;;;;;5021792;28;20581;-72
2021/12/30 09:34:20;;;;;;;11.10;6.38;;;13.90;91.70;;;;;;5022418;28;20495;-72
2021/12/30 09:36:47;;;;;;;13.52;7.15;;;13.80;91.60;;;;;;5019192;28;20029;-72
2021/12/30 09:39:14;;;;;;;11.50;6.65;;;13.80;91.60;;;;;;5003349;28;20052;-72
2021/12/30 09:41:43;;;;;;;12.52;6.65;;;13.90;91.80;;;;;;5006209;28;20036;-72
2021/12/30 09:44:11;;;;;;;12.15;6.68;;;13.90;91.40;;;;;;4992114;28;20462;-72
2021/12/30 09:46:38;;;;;;;8.93;6.07;;;13.90;91.40;;;;;;5007305;28;20028;-73
2021/12/30 09:49:06;;;;;;;6.97;5.75;;;13.90;91.40;;;;;;4982607;28;20047;-72
2021/12/30 09:51:33;;;;;;;10.07;5.35;;;13.90;91.40;;;;;;4995487;28;20025;-72
2021/12/30 09:54:00;;;;;;;9.88;5.25;;;14.00;91.30;;;;;;4996853;28;20569;-72
2021/12/30 09:56:27;;;;;;;10.93;4.57;;;14.00;91.30;;;;;;5003331;28;20013;-72
2021/12/30 09:58:53;;;;;;;9.88;4.45;;;14.00;91.20;;;;;;5000409;28;20022;-72
2021/12/30 10:01:19;;;;;;;10.32;4.45;;;14.00;91.20;;;;;;5007690;28;20076;-72
2021/12/30 10:03:46;;;;;;;11.38;4.40;;;14.10;91.10;;;;;;4968028;28;20428;-72
2021/12/30 10:06:15;;;;;;;12.35;4.82;;;14.10;91.10;;;;;;5002253;28;20037;-72
2021/12/30 10:09:05;;;;;;;13.85;4.72;;;14.10;91.00;;;;;;5014303;28;20480;-72
2021/12/30 10:11:49;;;;;;;8.05;4.32;;;14.20;90.90;;;;;;5002387;28;20018;-72
2021/12/30 10:14:25;;;;;;;15.57;5.70;;;14.20;90.80;;;;;;5010804;28;20065;-72
2021/12/30 10:16:53;;;;;;;11.43;3.95;;;14.20;90.70;;;;;;5004412;28;20084;-72
2021/12/30 10:19:26;;;;;;;12.45;4.35;;;14.20;90.70;;;;;;5013571;28;20092;-72
2021/12/30 10:21:52;;;;;;;10.93;4.07;;;14.20;90.60;;;;;;5014215;28;20338;-72
2021/12/30 10:24:17;;;;;;;8.85;4.03;;;14.30;90.70;;;;;;5011950;28;20053;-72
2021/12/30 10:27:23;;;;;;;14.80;4.80;;;14.20;90.70;;;;;;4979921;28;20049;-72
2021/12/30 10:29:49;;;;;;;10.25;3.80;;;14.30;90.70;;;;;;4990014;28;20033;-72
2021/12/30 10:32:23;;;;;;;13.93;4.30;;;14.30;90.50;;;;;;5012948;28;20452;-72
2021/12/30 10:35:03;;;;;;;8.40;3.15;;;14.30;90.50;;;;;;5012806;28;20025;-72
2021/12/30 10:37:28;;;;;;;11.10;3.95;;;14.30;90.60;;;;;;4985112;28;20062;-72
2021/12/30 10:39:54;;;;;;;9.90;3.80;;;14.30;90.60;;;;;;5011463;28;20033;-72
2021/12/30 10:42:21;;;;;;;10.50;4.05;;;14.30;90.50;;;;;;5025309;28;20041;-72
2021/12/30 10:44:56;;;;;;;11.00;3.78;;;14.30;90.50;;;;;;5029981;28;20459;-72
2021/12/30 10:47:25;;;;;;;13.95;4.28;;;14.30;90.40;;;;;;5022566;28;20025;-72
2021/12/30 10:49:59;;;;;;;11.43;3.90;;;14.30;90.40;;;;;;5032218;28;20473;-72
2021/12/30 10:52:26;;;;;;;12.82;4.50;;;14.30;90.20;;;;;;5026298;28;20488;-72
2021/12/30 10:54:52;;;;;;;13.48;4.55;;;14.30;90.30;;;;;;4987514;28;20028;-72
2021/12/30 10:57:18;;;;;;;11.77;4.32;;;14.40;90.00;;;;;;5024746;28;20104;-71
2021/12/30 10:59:48;;;;;;;10.77;4.22;;;14.40;90.00;;;;;;5023798;28;20037;-72
2021/12/30 11:02:17;;;;;;;13.52;4.93;;;14.40;90.00;;;;;;5025983;28;20025;-73
2021/12/30 11:04:44;;;;;;;11.48;4.88;;;14.40;89.70;;;;;;5021869;28;20030;-73
2021/12/30 11:07:20;;;;;;;16.30;5.65;;;14.40;89.80;;;;;;5015526;28;20033;-72
2021/12/30 11:09:51;;;;;;;15.98;6.20;;;14.40;89.70;;;;;;5007399;28;20037;-73
2021/12/30 11:12:28;;;;;;;12.93;5.17;;;14.40;89.30;;;;;;5017410;28;20133;-73
2021/12/30 11:14:54;;;;;;;15.65;5.50;;;14.40;89.40;;;;;;5019137;28;20286;-73
2021/12/30 11:17:29;;;;;;;14.35;5.75;;;14.40;89.40;;;;;;5026876;28;20017;-72
2021/12/30 11:19:58;;;;;;;14.90;4.93;;;14.40;89.10;;;;;;5018673;28;20116;-73
2021/12/30 11:22:30;;;;;;;13.55;4.75;;;14.50;89.10;;;;;;5017662;28;20025;-70
2021/12/30 11:24:58;;;;;;;11.65;4.68;;;14.50;89.10;;;;;;5027894;28;20022;-70
2021/12/30 11:27:25;;;;;;;13.93;4.90;;;14.50;89.30;;;;;;5026841;28;20030;-73
2021/12/30 11:29:54;;;;;;;11.82;4.60;;;14.50;89.10;;;;;;5010692;28;20117;-73
2021/12/30 11:32:23;;;;;;;11.73;4.93;;;14.50;89.00;;;;;;5029435;28;20136;-70
2021/12/30 11:34:50;;;;;;;12.77;4.50;;;14.50;88.90;;;;;;5008521;28;20014;-71
2021/12/30 11:37:17;;;;;;;12.90;4.53;;;14.50;88.90;;;;;;5005085;28;20079;-70
2021/12/30 11:39:46;;;;;;;15.73;4.88;;;14.50;88.90;;;;;;5030407;28;20041;-70
2021/12/30 11:42:23;;;;;;;9.85;3.90;;;14.50;88.80;;;;;;5017425;28;20069;-70
2021/12/30 11:44:49;;;;;;;11.02;4.22;;;14.50;88.90;;;;;;5024048;28;20036;-70
2021/12/30 11:47:35;;;;;;;12.15;4.10;;;14.40;88.80;;;;;;5022490;28;20124;-70
2021/12/30 11:50:07;;;;;;;13.65;4.32;;;14.40;89.30;;;;;;5020003;28;20081;-70
2021/12/30 11:52:46;;;;;;;14.45;5.10;;;14.50;88.60;;;;;;5006558;28;20026;-70
2021/12/30 11:55:57;;;;;;;13.65;4.30;;;14.50;88.70;;;;;;5010009;28;20036;-70
2021/12/30 12:00:59;;;;;;;14.35;4.03;;;14.50;88.70;;;;;;5024342;28;20040;-70
2021/12/30 12:03:39;;;;;;;12.48;3.97;;;14.50;88.80;;;;;;5019965;28;20107;-71
2021/12/30 12:06:28;;;;;;;12.65;3.85;;;14.50;88.90;;;;;;5021779;28;20358;-69
2021/12/30 12:09:12;;;;;;;16.70;3.72;;;14.50;89.00;;;;;;5020931;28;20095;-71
2021/12/30 12:11:40;;;;;;;12.55;3.63;;;14.50;88.90;;;;;;5017615;28;20025;-70
2021/12/30 12:14:21;;;;;;;11.82;3.95;;;14.50;89.00;;;;;;5023759;28;20101;-70
2021/12/30 12:17:03;;;;;;;12.05;3.60;;;14.50;89.00;;;;;;5014218;28;20073;-70
2021/12/30 12:19:44;;;;;;;10.85;3.47;;;14.50;89.20;;;;;;5010737;28;20023;-71
2021/12/30 12:22:29;;;;;;;12.18;3.97;;;14.50;88.90;;;;;;5018500;28;20045;-71
2021/12/30 12:25:09;;;;;;;12.60;4.15;;;14.50;88.90;;;;;;5016298;28;20084;-71
2021/12/30 12:27:46;;;;;;;11.02;4.13;;;14.50;88.90;;;;;;5017910;28;20037;-70
2021/12/30 12:30:32;;;;;;;13.18;4.32;;;14.50;88.70;;;;;;5003376;28;20022;-70
2021/12/30 12:33:20;;;;;;;13.55;4.40;;;14.50;88.60;;;;;;5015498;28;20080;-71
2021/12/30 12:35:46;;;;;;;9.23;3.80;;;14.50;88.50;;;;;;5013336;28;20030;-70
2021/12/30 12:38:12;;;;;;;12.07;3.75;;;14.60;88.30;;;;;;5027182;28;20045;-71
2021/12/30 12:40:41;;;;;;;7.72;3.33;;;14.50;88.30;;;;;;5025908;28;20030;-71